Time;durP1;ratioP1;P1;durP2;ratioP2;P2;SDS_P1;SDS_P2;PMS_P1;PMS_P2;Temp;Humidity;BMP_temperature;BMP_pressure;BME280_temperature;BME280_humidity;BME280_pressure;Samples;Min_cycle;Max_cycle;Signal;HPM_P1;HPM_P2
2023/08/05 04:32:03;;;;;;;4.60;3.30;;;;;;;17.42;87.99;96701.47;107376;1263;98756;-78
2023/08/05 04:34:55;;;;;;;6.60;2.90;;;;;;;17.37;87.69;96693.13;106886;1254;97476;-77
2023/08/05 04:37:51;;;;;;;3.40;3.00;;;;;;;17.28;88.05;96703.48;106250;1258;97489;-78
2023/08/05 04:40:51;;;;;;;4.20;3.00;;;;;;;17.22;88.13;96704.95;106286;1259;101923;-78
2023/08/05 04:43:58;;;;;;;6.90;3.60;;;;;;;17.18;88.41;96692.83;105832;1259;101211;-79
2023/08/05 04:47:04;;;;;;;3.70;3.30;;;;;;;17.18;88.67;96682.13;105218;1266;99220;-85
2023/08/05 04:50:12;;;;;;;4.20;3.40;;;;;;;17.21;88.73;96682.15;105150;1265;96675;-86
2023/08/05 05:06:36;;;;;;;4.60;3.10;;;;;;;17.22;88.60;96616.30;100760;1306;639213;-77
2023/08/05 05:09:45;;;;;;;5.90;3.10;;;;;;;17.23;89.03;96607.32;103795;1276;96068;-78
2023/08/05 05:16:30;;;;;;;5.60;3.20;;;;;;;17.27;89.08;96610.21;101088;1298;638523;-86
2023/08/05 05:19:39;;;;;;;4.40;2.40;;;;;;;17.25;89.12;96601.76;102647;1286;97256;-84
2023/08/05 05:43:06;;;;;;;5.50;3.00;;;;;;;17.52;88.60;96516.22;102414;1283;641783;-77
2023/08/05 05:46:19;;;;;;;3.80;2.40;;;;;;;17.56;88.48;96498.74;99403;1290;5341262;-83
2023/08/05 06:16:00;;;;;;;1.40;1.30;;;;;;;17.70;88.71;96628.73;102485;1285;639898;-80
2023/08/05 06:18:54;;;;;;;1.80;1.70;;;;;;;17.76;88.50;96652.27;100028;1273;5335302;-82
2023/08/05 06:21:47;;;;;;;3.70;1.70;;;;;;;17.69;88.72;96639.08;104313;1277;99315;-83
2023/08/05 06:24:39;;;;;;;2.40;1.90;;;;;;;17.63;89.06;96615.86;104334;1280;101420;-82
2023/08/05 06:27:47;;;;;;;2.90;2.60;;;;;;;17.56;89.18;96586.27;103894;1276;99015;-83
2023/08/05 06:30:55;;;;;;;4.80;3.50;;;;;;;17.49;89.46;96619.36;102740;1305;97176;-77
2023/08/05 09:14:29;;;;;;;1.80;1.70;;;;;;;20.80;88.74;96395.55;105180;1264;95854;-78
2023/08/05 09:17:26;;;;;;;2.10;1.70;;;;;;;20.82;87.98;96369.89;105744;1260;99855;-80
2023/08/05 09:20:36;;;;;;;1.90;1.80;;;;;;;20.80;87.86;96346.39;105509;1263;101206;-81
2023/08/05 09:23:43;;;;;;;2.10;1.70;;;;;;;20.93;88.20;96347.88;105090;1267;98952;-81
2023/08/05 09:26:50;;;;;;;2.10;1.90;;;;;;;21.31;88.01;96352.64;104522;1273;96829;-89
2023/08/05 09:29:28;;;;;;;2.40;2.30;;;;;;;21.73;87.66;96360.23;103775;1279;95997;-90
2023/08/05 09:32:05;;;;;;;2.80;2.40;;;;;;;22.00;86.63;96356.73;103816;1282;100841;-88
2023/08/05 10:04:09;;;;;;;1.90;1.80;;;;;;;23.26;81.19;96362.65;102320;1289;640085;-89
2023/08/05 10:06:44;;;;;;;2.60;1.70;;;;;;;24.06;79.69;96354.50;100154;1275;5343633;-80
2023/08/05 10:09:52;;;;;;;2.60;1.70;;;;;;;24.37;79.15;96352.27;104204;1269;99492;-80
2023/08/05 10:13:20;;;;;;;2.30;1.90;;;;;;;24.66;77.90;96349.55;103571;1278;100545;-80
2023/08/05 10:16:10;;;;;;;1.60;1.50;;;;;;;24.95;77.26;96340.58;103442;1278;99144;-78
2023/08/05 10:18:59;;;;;;;2.90;1.60;;;;;;;25.21;76.68;96348.56;102946;1282;95913;-77
2023/08/05 10:21:57;;;;;;;2.80;1.80;;;;;;;25.44;76.11;96360.00;102560;1298;96063;-91
2023/08/05 10:25:14;;;;;;;1.60;1.50;;;;;;;25.63;75.24;96356.30;102489;1290;107287;-90
2023/08/05 12:55:19;;;;;;;3.50;3.20;;;;;;;23.70;75.12;96234.68;105463;1262;99286;-92
2023/08/05 12:57:46;;;;;;;3.20;2.90;;;;;;;23.75;75.12;96240.50;106801;1253;109534;-84
2023/08/05 13:00:12;;;;;;;5.20;3.60;;;;;;;23.79;75.21;96239.42;106813;1261;96874;-83
2023/08/05 13:02:39;;;;;;;4.00;3.30;;;;;;;23.84;74.97;96238.30;106880;1250;96316;-82
2023/08/05 13:05:06;;;;;;;3.90;3.40;;;;;;;23.90;74.82;96238.65;107005;1251;96433;-83
2023/08/05 13:07:32;;;;;;;6.30;3.90;;;;;;;23.94;74.69;96242.85;107827;1240;102525;-83
2023/08/05 13:09:58;;;;;;;4.60;3.30;;;;;;;23.96;74.66;96243.84;107905;1240;95936;-83
2023/08/05 13:12:24;;;;;;;3.80;3.30;;;;;;;23.95;74.42;96240.13;107836;1240;97038;-84
2023/08/05 13:14:51;;;;;;;3.50;3.20;;;;;;;23.92;74.22;96245.81;107833;1240;96009;-84
2023/08/05 13:17:17;;;;;;;3.70;3.10;;;;;;;23.81;74.17;96251.55;108080;1240;101453;-83
2023/08/05 13:19:43;;;;;;;5.20;3.40;;;;;;;23.69;74.22;96252.41;108217;1236;95781;-87
2023/08/05 13:22:10;;;;;;;3.90;3.50;;;;;;;23.59;74.20;96252.80;107932;1242;96102;-82
2023/08/05 13:24:36;;;;;;;4.50;3.80;;;;;;;23.45;74.14;96250.48;107976;1240;95944;-85
2023/08/05 13:27:03;;;;;;;4.70;4.30;;;;;;;23.31;74.39;96258.23;107873;1247;102334;-83
2023/08/05 13:29:29;;;;;;;5.20;3.70;;;;;;;23.19;74.39;96258.77;107875;1250;95898;-85
2023/08/05 13:31:56;;;;;;;4.60;3.70;;;;;;;23.08;74.62;96259.77;107427;1251;97594;-83
2023/08/05 13:34:22;;;;;;;4.00;3.60;;;;;;;23.00;74.76;96256.22;107554;1244;96099;-83
2023/08/05 13:36:48;;;;;;;4.30;3.90;;;;;;;22.97;75.00;96253.42;107612;1243;102090;-83
2023/08/05 13:39:15;;;;;;;5.00;3.90;;;;;;;22.92;75.19;96249.66;107678;1248;97082;-83
2023/08/05 13:41:41;;;;;;;7.10;4.50;;;;;;;22.88;75.25;96242.73;107548;1250;96177;-83
2023/08/05 13:44:07;;;;;;;5.50;4.40;;;;;;;22.86;75.47;96241.23;107785;1239;96828;-84
2023/08/05 13:46:34;;;;;;;4.90;4.30;;;;;;;22.82;75.45;96242.39;107873;1251;102016;-81
2023/08/05 13:49:00;;;;;;;5.10;4.40;;;;;;;22.78;75.64;96239.67;107696;1248;95908;-83
2023/08/05 13:51:26;;;;;;;5.30;4.80;;;;;;;22.75;75.70;96239.41;107841;1241;96645;-84
2023/08/05 13:53:53;;;;;;;5.20;4.70;;;;;;;22.68;75.82;96244.88;107742;1237;95818;-83
2023/08/05 13:56:23;;;;;;;5.40;4.90;;;;;;;22.67;76.02;96246.77;107787;1240;100468;-83
2023/08/05 13:58:49;;;;;;;6.30;5.70;;;;;;;22.65;76.05;96245.44;107789;1240;100781;-83
2023/08/05 14:01:16;;;;;;;6.60;5.10;;;;;;;22.60;75.97;96239.45;107833;1240;97838;-82
2023/08/05 14:03:42;;;;;;;7.00;5.80;;;;;;;22.57;76.06;96238.14;107996;1232;96325;-83
2023/08/05 14:06:09;;;;;;;8.10;6.50;;;;;;;22.50;76.03;96241.37;108201;1244;96321;-83
2023/08/05 14:08:35;;;;;;;7.10;6.40;;;;;;;22.41;76.11;96250.35;108138;1237;100576;-83
2023/08/05 14:11:01;;;;;;;7.80;7.10;;;;;;;22.30;76.08;96245.98;108114;1239;96418;-81
2023/08/05 14:13:28;;;;;;;8.10;7.40;;;;;;;22.17;76.11;96244.39;108130;1237;95824;-83
2023/08/05 14:15:54;;;;;;;7.80;7.00;;;;;;;22.07;76.44;96242.92;108202;1237;96759;-84
2023/08/05 14:18:21;;;;;;;11.10;7.40;;;;;;;22.00;76.74;96241.52;108142;1237;100598;-84
2023/08/05 14:20:50;;;;;;;8.60;7.80;;;;;;;21.95;76.74;96241.88;108134;1244;95833;-85
2023/08/05 14:23:16;;;;;;;8.50;7.70;;;;;;;21.90;76.90;96242.41;108114;1244;95798;-83
2023/08/05 14:25:43;;;;;;;8.60;7.40;;;;;;;21.86;77.08;96241.63;108139;1237;96070;-82
2023/08/05 14:28:10;;;;;;;9.40;6.90;;;;;;;21.84;77.52;96243.80;108106;1237;97103;-83
2023/08/05 14:30:38;;;;;;;8.00;7.20;;;;;;;21.86;77.65;96248.23;108112;1244;95974;-83
2023/08/05 14:33:06;;;;;;;7.40;6.50;;;;;;;21.90;77.71;96246.45;108105;1234;95990;-84
2023/08/05 14:35:36;;;;;;;7.50;6.80;;;;;;;21.94;77.86;96249.11;108129;1232;96087;-83
2023/08/05 14:38:04;;;;;;;10.50;7.60;;;;;;;21.93;77.67;96257.20;108028;1237;101570;-82
2023/08/05 14:40:32;;;;;;;9.20;7.00;;;;;;;21.87;77.80;96257.15;108135;1236;102112;-81
2023/08/05 14:42:59;;;;;;;7.60;6.90;;;;;;;21.87;77.96;96259.73;108117;1236;100583;-82
2023/08/05 14:45:25;;;;;;;7.50;6.80;;;;;;;21.89;78.04;96261.08;108175;1236;96061;-82
2023/08/05 14:47:52;;;;;;;8.60;7.50;;;;;;;21.92;78.21;96258.27;108175;1237;95852;-83
2023/08/05 14:50:18;;;;;;;9.10;8.20;;;;;;;21.92;78.07;96258.85;108187;1237;95789;-81
2023/08/05 14:52:48;;;;;;;10.50;7.30;;;;;;;21.90;78.13;96257.96;108080;1236;100457;-82
2023/08/05 14:55:15;;;;;;;8.90;8.00;;;;;;;21.87;78.01;96254.35;107689;1239;95893;-83
2023/08/05 14:57:42;;;;;;;9.30;7.70;;;;;;;21.85;78.15;96253.05;108144;1236;96832;-84
2023/08/05 15:00:09;;;;;;;9.60;8.60;;;;;;;21.80;78.04;96246.89;108122;1237;96112;-83
2023/08/05 15:02:36;;;;;;;10.70;9.70;;;;;;;21.73;78.20;96241.25;108173;1245;95845;-83
2023/08/05 15:05:03;;;;;;;10.40;8.90;;;;;;;21.68;78.54;96247.63;108102;1237;96727;-82
2023/08/05 15:07:29;;;;;;;10.20;9.20;;;;;;;21.67;78.69;96249.85;108068;1237;96776;-83
2023/08/05 15:09:56;;;;;;;11.70;9.30;;;;;;;21.66;78.71;96245.64;108224;1237;95918;-84
2023/08/05 15:12:22;;;;;;;11.90;10.60;;;;;;;21.64;78.60;96241.06;108213;1246;102050;-83
2023/08/05 15:14:50;;;;;;;11.80;9.40;;;;;;;21.62;78.69;96242.98;108119;1237;95907;-83
2023/08/05 15:17:17;;;;;;;10.70;9.10;;;;;;;21.60;78.85;96247.67;108073;1237;96087;-84
2023/08/05 15:19:43;;;;;;;11.20;10.10;;;;;;;21.55;78.77;96245.68;108124;1244;95830;-84
2023/08/05 15:22:10;;;;;;;12.30;10.60;;;;;;;21.48;78.66;96246.65;108155;1237;96727;-83
2023/08/05 15:24:37;;;;;;;12.60;11.30;;;;;;;21.45;78.91;96250.36;108164;1237;100711;-84
2023/08/05 15:27:04;;;;;;;13.20;10.80;;;;;;;21.37;79.09;96248.45;108113;1237;96270;-83
2023/08/05 15:29:30;;;;;;;12.80;11.60;;;;;;;21.32;79.47;96246.30;108146;1237;95820;-83
2023/08/05 15:31:57;;;;;;;12.20;10.70;;;;;;;21.28;79.46;96249.29;108157;1237;96521;-83
2023/08/05 15:34:23;;;;;;;14.00;12.60;;;;;;;21.23;79.52;96255.95;108129;1241;95824;-84
2023/08/05 15:36:50;;;;;;;15.10;12.20;;;;;;;21.15;79.50;96257.55;108155;1238;95789;-82
2023/08/05 15:39:16;;;;;;;14.90;12.10;;;;;;;21.06;79.73;96253.77;108138;1237;95905;-82
2023/08/05 15:41:42;;;;;;;13.40;12.10;;;;;;;20.99;80.00;96253.60;108129;1232;95874;-83
2023/08/05 15:44:09;;;;;;;13.20;11.90;;;;;;;20.96;80.07;96257.46;108160;1244;95959;-82
2023/08/05 15:46:36;;;;;;;14.80;12.70;;;;;;;20.92;80.12;96263.52;108123;1244;96501;-81
2023/08/05 15:49:02;;;;;;;16.20;14.10;;;;;;;20.91;80.29;96271.25;108136;1247;95956;-82
2023/08/05 15:51:28;;;;;;;14.80;13.30;;;;;;;20.90;80.36;96271.06;108163;1234;96730;-81
2023/08/05 15:53:55;;;;;;;16.20;13.00;;;;;;;20.86;80.53;96264.20;108137;1237;96084;-83
2023/08/05 15:56:21;;;;;;;16.30;14.10;;;;;;;20.83;80.65;96274.77;108179;1232;95851;-82
2023/08/05 15:58:47;;;;;;;16.50;13.70;;;;;;;20.78;80.70;96278.32;108051;1232;96720;-82
2023/08/05 16:01:14;;;;;;;20.00;14.70;;;;;;;20.75;80.90;96269.52;108091;1237;95792;-83
2023/08/05 16:03:40;;;;;;;18.10;16.30;;;;;;;20.71;81.08;96255.36;108069;1245;97546;-82
2023/08/05 16:06:08;;;;;;;18.40;16.30;;;;;;;20.71;81.06;96254.94;108166;1237;96563;-82
2023/08/05 16:08:37;;;;;;;18.50;15.90;;;;;;;20.68;81.17;96259.92;108097;1237;97424;-81
2023/08/05 16:11:05;;;;;;;18.00;14.50;;;;;;;20.64;81.27;96257.81;108116;1238;103085;-82
2023/08/05 16:13:32;;;;;;;15.90;14.00;;;;;;;20.61;81.43;96262.88;108185;1232;102012;-82
2023/08/05 16:16:13;;;;;;;17.00;14.20;;;;;;;20.60;81.82;96262.66;108055;1236;96602;-82
2023/08/05 16:18:40;;;;;;;17.00;13.50;;;;;;;20.57;82.02;96259.63;108250;1236;97457;-82
2023/08/05 16:21:20;;;;;;;16.80;14.10;;;;;;;20.57;82.08;96260.62;108212;1242;97797;-82
2023/08/05 16:23:53;;;;;;;16.70;14.40;;;;;;;20.58;82.28;96269.31;108038;1237;102594;-82
2023/08/05 16:26:21;;;;;;;16.60;13.90;;;;;;;20.60;82.41;96276.36;107906;1238;100078;-81
2023/08/05 16:28:48;;;;;;;17.10;15.20;;;;;;;20.60;82.37;96270.50;108074;1232;100337;-82
2023/08/05 16:31:15;;;;;;;18.20;15.10;;;;;;;20.58;82.46;96260.73;107878;1247;96851;-82
2023/08/05 16:33:42;;;;;;;19.70;15.70;;;;;;;20.56;82.39;96251.60;108088;1239;96961;-82
2023/08/05 16:36:08;;;;;;;18.50;14.60;;;;;;;20.55;82.50;96236.05;108095;1234;97173;-82
2023/08/05 16:38:36;;;;;;;19.40;14.00;;;;;;;20.55;82.70;96223.83;108128;1246;96612;-82
2023/08/05 16:41:02;;;;;;;17.50;14.90;;;;;;;20.52;82.64;96219.27;108114;1237;97489;-83
2023/08/05 16:43:29;;;;;;;18.30;14.80;;;;;;;20.45;82.58;96234.20;108163;1245;97661;-83
2023/08/05 16:45:56;;;;;;;20.00;15.70;;;;;;;20.43;82.78;96242.23;108098;1235;96551;-82
2023/08/05 16:48:22;;;;;;;18.50;15.60;;;;;;;20.41;82.70;96250.55;108159;1237;97257;-82
2023/08/05 16:50:49;;;;;;;20.20;16.60;;;;;;;20.40;83.04;96258.86;108145;1238;96547;-83
2023/08/05 16:53:15;;;;;;;19.80;15.60;;;;;;;20.40;83.14;96260.67;108202;1232;97424;-83
2023/08/05 16:55:41;;;;;;;21.40;17.90;;;;;;;20.39;83.27;96256.25;108132;1236;102717;-83
2023/08/05 16:58:07;;;;;;;25.40;18.80;;;;;;;20.37;83.31;96248.60;108183;1245;97744;-82
2023/08/05 17:00:34;;;;;;;24.80;18.50;;;;;;;20.34;83.47;96240.73;108138;1247;96605;-83
2023/08/05 17:03:00;;;;;;;23.20;18.90;;;;;;;20.34;83.62;96243.03;108209;1238;96557;-83
2023/08/05 18:23:23;;;;;;;23.30;18.20;;;;;;;19.81;86.71;96201.16;108155;1239;97870;-82
2023/08/05 18:26:30;;;;;;;26.00;17.50;;;;;;;19.80;86.85;96212.31;107857;1242;97736;-81
2023/08/05 18:29:37;;;;;;;26.70;18.20;;;;;;;19.81;86.89;96235.98;107421;1245;97006;-81
2023/08/05 18:32:29;;;;;;;24.40;17.40;;;;;;;19.82;87.21;96250.48;106580;1260;101267;-79
2023/08/05 18:35:19;;;;;;;21.10;16.90;;;;;;;19.83;87.31;96257.59;105809;1267;100592;-80
2023/08/05 18:38:26;;;;;;;23.70;18.40;;;;;;;19.82;87.46;96262.52;105432;1263;98577;-83
2023/08/05 19:01:13;;;;;;;14.00;11.40;;;;;;;20.06;87.24;96129.84;102743;1282;640229;-85
2023/08/05 19:04:10;;;;;;;15.10;10.20;;;;;;;20.06;87.14;96140.46;99318;1282;5337586;-82
2023/08/05 19:07:18;;;;;;;13.00;11.50;;;;;;;19.91;87.73;96132.48;103182;1282;96475;-81
2023/08/05 19:10:26;;;;;;;16.90;13.10;;;;;;;19.87;88.01;96134.64;103064;1284;98708;-81
2023/08/05 19:13:35;;;;;;;17.10;12.80;;;;;;;19.84;88.14;96146.89;102274;1287;101588;-82
2023/08/05 19:53:48;;;;;;;9.10;6.00;;;;;;;19.90;89.33;96251.91;105830;1260;94772;-81
2023/08/05 19:56:39;;;;;;;9.60;6.70;;;;;;;19.90;89.40;96243.26;106535;1261;96059;-79
2023/08/05 19:59:18;;;;;;;11.40;7.60;;;;;;;19.85;89.32;96211.06;105921;1258;98307;-77
2023/08/05 20:02:07;;;;;;;9.20;7.90;;;;;;;19.80;89.51;96179.44;106481;1260;100102;-79
2023/08/05 20:05:13;;;;;;;6.80;6.10;;;;;;;19.72;89.56;96133.46;106455;1250;98463;-80
2023/08/05 20:08:19;;;;;;;7.10;6.10;;;;;;;19.68;89.73;96089.58;106403;1246;96990;-78
2023/08/05 20:11:26;;;;;;;5.10;4.60;;;;;;;19.63;89.72;96117.63;105596;1260;96042;-78
2023/08/05 20:14:17;;;;;;;6.50;4.70;;;;;;;19.59;89.89;96180.98;105002;1264;99438;-79
2023/08/05 20:17:07;;;;;;;4.30;3.90;;;;;;;19.56;90.27;96215.96;104667;1271;101545;-77
2023/08/05 20:20:14;;;;;;;4.80;4.40;;;;;;;19.56;90.37;96238.91;104535;1267;99485;-83
2023/08/05 20:23:06;;;;;;;9.10;5.70;;;;;;;19.56;90.61;96261.29;104627;1272;96016;-84
2023/08/05 20:26:05;;;;;;;8.10;5.40;;;;;;;19.56;90.52;96276.99;104259;1278;96455;-81
2023/08/05 21:34:41;;;;;;;3.80;3.30;;;;;;;19.40;92.15;96015.11;106796;1266;99150;-80
2023/08/05 21:37:46;;;;;;;3.80;3.40;;;;;;;19.40;92.23;96025.18;106582;1257;101376;-78
2023/08/05 21:40:53;;;;;;;3.60;3.10;;;;;;;19.40;92.26;96021.23;106638;1261;98857;-78
2023/08/05 21:43:43;;;;;;;4.30;3.70;;;;;;;19.41;92.52;96015.42;105242;1261;97007;-77
2023/08/05 21:46:50;;;;;;;5.10;4.60;;;;;;;19.43;92.59;96016.54;104656;1267;96907;-77
2023/08/05 21:49:58;;;;;;;7.20;4.50;;;;;;;19.44;92.49;96023.95;104051;1278;99881;-77
2023/08/05 22:03:12;;;;;;;7.70;5.60;;;;;;;19.49;92.47;96042.85;101395;1298;640070;-78
2023/08/05 22:06:26;;;;;;;6.30;5.40;;;;;;;19.49;92.59;96028.27;103175;1283;95960;-79
2023/08/05 22:09:34;;;;;;;7.50;5.90;;;;;;;19.49;92.56;96014.19;102816;1283;95934;-78
2023/08/05 22:13:01;;;;;;;7.40;6.50;;;;;;;19.45;92.58;96019.07;102250;1300;100104;-80
2023/08/05 22:56:48;;;;;;;9.80;5.60;;;;;;;19.57;92.59;95975.30;105698;1264;95917;-77
2023/08/05 22:59:33;;;;;;;6.50;5.80;;;;;;;19.45;92.78;95993.68;106796;1256;98922;-76
2023/08/05 23:02:33;;;;;;;10.30;6.10;;;;;;;19.38;93.02;96000.05;106860;1257;97204;-79
2023/08/05 23:05:20;;;;;;;7.60;6.00;;;;;;;19.35;93.06;95995.16;106783;1258;95844;-78
2023/08/05 23:08:25;;;;;;;9.00;7.10;;;;;;;19.34;93.28;95987.95;106815;1260;97723;-78
2023/08/05 23:11:32;;;;;;;7.80;6.60;;;;;;;19.34;93.41;95979.96;106286;1255;101291;-79
2023/08/05 23:14:32;;;;;;;8.90;6.80;;;;;;;19.32;93.27;95981.81;106279;1265;108558;-83
2023/08/05 23:17:38;;;;;;;7.90;6.90;;;;;;;19.32;93.49;95971.95;105262;1266;96161;-79
2023/08/05 23:20:23;;;;;;;8.50;7.30;;;;;;;19.32;93.41;95949.90;104701;1277;96291;-78
2023/08/05 23:23:30;;;;;;;9.40;7.70;;;;;;;19.31;93.21;95931.81;104680;1268;99942;-78
